TVF3244 LFPO-GVBA
Flight info
| Callsign | TVF3244 |
|---|---|
| Flight time | N/A |
| Altitude | 37000 |
| Route | LGL UT176 TERPO UN872 ERIGA DCT FUJTI DCT PEPET DCT BAKUP DCT BATAX DCT FTM DCT ODLIX DCT BEXAL DCT SAMAR DCT GDV DCT LOMAS DCT ODEGI DCT UDATI DCT LIMAL N873 IPERA DCT DIMKI DIMKI1P |
| Aircraft | B738/M-SDE2E3FGHIRWXY/LB1 |
Departure
| Time | N/A |
|---|---|
| Airport | Paris-Orly Airport (LFPO) |
Arrival
| Time | 2026-04-11 13:54 |
|---|---|
| Airport | Aristides Pereira International Airport (GVBA) |
| Time | Latitude | Longitude | Altitude | Speed | Heading |
|---|---|---|---|---|---|
| 2026-04-11 08:24 | 48.77346 | 0.94369 | 21472 ft | 407 kts | 268° |
| 2026-04-11 08:25 | 48.77535 | 0.90070 | 21813 ft | 410 kts | 268° |
| 2026-04-11 08:25 | 48.77723 | 0.85748 | 22144 ft | 412 kts | 268° |
| 2026-04-11 08:25 | 48.77742 | 0.59195 | 22513 ft | 414 kts | 268° |
| 2026-04-11 08:25 | 48.77709 | 0.54874 | 22851 ft | 406 kts | 256° |
| 2026-04-11 08:26 | 48.76979 | 0.50785 | 23192 ft | 400 kts | 245° |
| 2026-04-11 08:26 | 48.75816 | 0.46971 | 23501 ft | 399 kts | 238° |
| 2026-04-11 08:26 | 48.74315 | 0.43456 | 23729 ft | 398 kts | 229° |
| 2026-04-11 08:26 | 48.72477 | 0.40303 | 23985 ft | 399 kts | 227° |
| 2026-04-11 08:27 | 48.70613 | 0.37172 | 24239 ft | 401 kts | 227° |
| 2026-04-11 08:27 | 48.68747 | 0.34023 | 24483 ft | 403 kts | 227° |
| 2026-04-11 08:27 | 48.66879 | 0.30852 | 24731 ft | 404 kts | 227° |
| 2026-04-11 08:27 | 48.65008 | 0.27662 | 24979 ft | 406 kts | 227° |
| 2026-04-11 08:28 | 48.63137 | 0.24465 | 25281 ft | 406 kts | 227° |
| 2026-04-11 08:28 | 48.61267 | 0.21270 | 25643 ft | 404 kts | 227° |
| 2026-04-11 08:28 | 48.59407 | 0.18098 | 26008 ft | 403 kts | 227° |
| 2026-04-11 08:28 | 48.57550 | 0.14930 | 26326 ft | 403 kts | 227° |
| 2026-04-11 08:29 | 48.55722 | 0.11726 | 26632 ft | 403 kts | 228° |
| 2026-04-11 08:29 | 48.54525 | 0.09593 | 26858 ft | 402 kts | 228° |
| 2026-04-11 08:29 | 48.52726 | 0.06373 | 27212 ft | 401 kts | 228° |
| 2026-04-11 08:29 | 48.50927 | 0.03157 | 27536 ft | 401 kts | 228° |
| 2026-04-11 08:30 | 48.49129 | -0.00049 | 27868 ft | 400 kts | 228° |
| 2026-04-11 08:30 | 48.47330 | -0.03244 | 28227 ft | 399 kts | 228° |
| 2026-04-11 08:30 | 48.44948 | -0.07463 | 28662 ft | 399 kts | 227° |
| 2026-04-11 08:30 | 48.43153 | -0.10636 | 28978 ft | 398 kts | 227° |
| 2026-04-11 08:31 | 48.41937 | -0.12783 | 29208 ft | 398 kts | 227° |
| 2026-04-11 08:31 | 48.40143 | -0.15946 | 29545 ft | 397 kts | 227° |
| 2026-04-11 08:31 | 48.38352 | -0.19104 | 29879 ft | 396 kts | 227° |
| 2026-04-11 08:31 | 48.36563 | -0.22250 | 30146 ft | 396 kts | 227° |
| 2026-04-11 08:32 | 48.34772 | -0.25396 | 30378 ft | 396 kts | 227° |
| 2026-04-11 08:32 | 48.32972 | -0.28526 | 30606 ft | 396 kts | 227° |
| 2026-04-11 08:32 | 48.31164 | -0.31648 | 30848 ft | 396 kts | 226° |
| 2026-04-11 08:32 | 48.29355 | -0.34762 | 31083 ft | 395 kts | 226° |
| 2026-04-11 08:33 | 48.27548 | -0.37870 | 31314 ft | 395 kts | 226° |
| 2026-04-11 08:33 | 48.25740 | -0.40978 | 31541 ft | 395 kts | 226° |
| 2026-04-11 08:33 | 48.23934 | -0.44081 | 31765 ft | 395 kts | 226° |
| 2026-04-11 08:33 | 48.22127 | -0.47183 | 31992 ft | 395 kts | 226° |
| 2026-04-11 08:34 | 48.20321 | -0.50281 | 32201 ft | 395 kts | 226° |
| 2026-04-11 08:34 | 48.18515 | -0.53378 | 32412 ft | 395 kts | 226° |
| 2026-04-11 08:34 | 48.16705 | -0.56476 | 32622 ft | 394 kts | 226° |
| 2026-04-11 08:34 | 48.14901 | -0.59563 | 32826 ft | 394 kts | 226° |
| 2026-04-11 08:35 | 48.13091 | -0.62654 | 33021 ft | 394 kts | 226° |
| 2026-04-11 08:35 | 48.11285 | -0.65735 | 33225 ft | 394 kts | 226° |
| 2026-04-11 08:35 | 48.09475 | -0.68821 | 33425 ft | 394 kts | 226° |
| 2026-04-11 08:35 | 48.07692 | -0.71857 | 33622 ft | 394 kts | 226° |
| 2026-04-11 08:36 | 48.05883 | -0.74932 | 33813 ft | 394 kts | 226° |
| 2026-04-11 08:36 | 48.04077 | -0.78000 | 33980 ft | 393 kts | 226° |
| 2026-04-11 08:36 | 48.02269 | -0.81067 | 34163 ft | 392 kts | 226° |
| 2026-04-11 08:36 | 48.00469 | -0.84118 | 34359 ft | 391 kts | 226° |
| 2026-04-11 08:37 | 47.98669 | -0.87164 | 34506 ft | 391 kts | 226° |
| 2026-04-11 08:37 | 47.96868 | -0.90210 | 34665 ft | 391 kts | 226° |
| 2026-04-11 08:37 | 47.95070 | -0.93247 | 34847 ft | 390 kts | 226° |
| 2026-04-11 08:37 | 47.93278 | -0.96270 | 35026 ft | 389 kts | 226° |
| 2026-04-11 08:38 | 47.91488 | -0.99285 | 35186 ft | 389 kts | 226° |
| 2026-04-11 08:38 | 47.89695 | -1.02302 | 35330 ft | 388 kts | 226° |
| 2026-04-11 08:38 | 47.87905 | -1.05312 | 35489 ft | 388 kts | 226° |
| 2026-04-11 08:38 | 47.86118 | -1.08312 | 35664 ft | 386 kts | 226° |
| 2026-04-11 08:39 | 47.84340 | -1.11295 | 35807 ft | 386 kts | 226° |
| 2026-04-11 08:39 | 47.82555 | -1.14286 | 35881 ft | 387 kts | 226° |
| 2026-04-11 08:39 | 47.78959 | -1.20300 | 35977 ft | 390 kts | 226° |
| 2026-04-11 08:40 | 47.75345 | -1.26330 | 36167 ft | 391 kts | 226° |
| 2026-04-11 08:40 | 47.71711 | -1.32382 | 36261 ft | 394 kts | 226° |
| 2026-04-11 08:41 | 47.68058 | -1.38453 | 36417 ft | 395 kts | 226° |
| 2026-04-11 08:41 | 47.64391 | -1.44535 | 36528 ft | 396 kts | 226° |
| 2026-04-11 08:42 | 47.60705 | -1.50631 | 36624 ft | 398 kts | 226° |
| 2026-04-11 08:43 | 47.55169 | -1.59752 | 36866 ft | 395 kts | 226° |
| 2026-04-11 08:43 | 47.51487 | -1.65801 | 36900 ft | 396 kts | 226° |
| 2026-04-11 08:44 | 47.47796 | -1.71852 | 36905 ft | 397 kts | 226° |
| 2026-04-11 08:44 | 47.44093 | -1.77912 | 36913 ft | 397 kts | 225° |
| 2026-04-11 08:45 | 47.40384 | -1.83969 | 36923 ft | 398 kts | 225° |
| 2026-04-11 08:45 | 47.36668 | -1.90018 | 36926 ft | 398 kts | 224° |
| 2026-04-11 08:46 | 47.32439 | -1.95205 | 36930 ft | 396 kts | 211° |
| 2026-04-11 08:46 | 47.27711 | -1.99376 | 36933 ft | 396 kts | 211° |
| 2026-04-11 08:47 | 47.22987 | -2.03558 | 36933 ft | 397 kts | 211° |
| 2026-04-11 08:47 | 47.18265 | -2.07758 | 36937 ft | 397 kts | 211° |
| 2026-04-11 08:48 | 47.13534 | -2.11968 | 36932 ft | 398 kts | 211° |
| 2026-04-11 08:48 | 47.08801 | -2.16170 | 36931 ft | 398 kts | 211° |
| 2026-04-11 08:49 | 47.04059 | -2.20373 | 36942 ft | 398 kts | 211° |
| 2026-04-11 08:49 | 46.99309 | -2.24574 | 36947 ft | 399 kts | 211° |
| 2026-04-11 08:50 | 46.94553 | -2.28771 | 36954 ft | 399 kts | 211° |
| 2026-04-11 08:50 | 46.89821 | -2.32940 | 36961 ft | 400 kts | 211° |
| 2026-04-11 08:51 | 46.85053 | -2.37129 | 36964 ft | 400 kts | 211° |
| 2026-04-11 08:51 | 46.80284 | -2.41315 | 36965 ft | 400 kts | 211° |
| 2026-04-11 08:52 | 46.73116 | -2.47597 | 36979 ft | 401 kts | 211° |
| 2026-04-11 08:52 | 46.68336 | -2.51775 | 36989 ft | 401 kts | 211° |
| 2026-04-11 08:53 | 46.63548 | -2.55952 | 36988 ft | 401 kts | 211° |
| 2026-04-11 08:53 | 46.58752 | -2.60127 | 37001 ft | 402 kts | 211° |
| 2026-04-11 08:54 | 46.53954 | -2.64296 | 37014 ft | 402 kts | 211° |
| 2026-04-11 08:54 | 46.49147 | -2.68463 | 36998 ft | 403 kts | 211° |
| 2026-04-11 08:55 | 46.44332 | -2.72629 | 37007 ft | 403 kts | 211° |
| 2026-04-11 08:55 | 46.39516 | -2.76787 | 37020 ft | 403 kts | 211° |
| 2026-04-11 08:56 | 46.34699 | -2.80937 | 37011 ft | 403 kts | 211° |
| 2026-04-11 08:56 | 46.29879 | -2.85083 | 37007 ft | 403 kts | 211° |
| 2026-04-11 08:57 | 46.25061 | -2.89216 | 37013 ft | 403 kts | 211° |
| 2026-04-11 08:57 | 46.20239 | -2.93337 | 37028 ft | 403 kts | 211° |
| 2026-04-11 08:58 | 46.15418 | -2.97450 | 37020 ft | 403 kts | 211° |
| 2026-04-11 08:58 | 46.10626 | -3.01532 | 37033 ft | 403 kts | 211° |
| 2026-04-11 08:59 | 46.05801 | -3.05633 | 37035 ft | 403 kts | 211° |
| 2026-04-11 08:59 | 46.00976 | -3.09727 | 37033 ft | 403 kts | 211° |
| 2026-04-11 09:00 | 45.96147 | -3.13816 | 37035 ft | 403 kts | 211° |
| 2026-04-11 09:00 | 45.91284 | -3.17925 | 37039 ft | 403 kts | 211° |
| 2026-04-11 09:01 | 45.86483 | -3.21974 | 37043 ft | 403 kts | 211° |
| 2026-04-11 09:01 | 45.81649 | -3.26042 | 37040 ft | 403 kts | 211° |
| 2026-04-11 09:02 | 45.76815 | -3.30101 | 37044 ft | 403 kts | 211° |
| 2026-04-11 09:02 | 45.71982 | -3.34152 | 37054 ft | 402 kts | 211° |
| 2026-04-11 09:03 | 45.67147 | -3.38196 | 37054 ft | 402 kts | 211° |
| 2026-04-11 09:03 | 45.62315 | -3.42230 | 37055 ft | 402 kts | 211° |
| 2026-04-11 09:04 | 45.57481 | -3.46257 | 37061 ft | 402 kts | 211° |
| 2026-04-11 09:04 | 45.52649 | -3.50275 | 37062 ft | 402 kts | 211° |
| 2026-04-11 09:05 | 45.47805 | -3.54294 | 37067 ft | 403 kts | 211° |
| 2026-04-11 09:05 | 45.42961 | -3.58305 | 37066 ft | 403 kts | 211° |
| 2026-04-11 09:06 | 45.38116 | -3.62309 | 37071 ft | 403 kts | 211° |
| 2026-04-11 09:06 | 45.33269 | -3.66307 | 37071 ft | 403 kts | 211° |
| 2026-04-11 09:07 | 45.28417 | -3.70302 | 37068 ft | 403 kts | 211° |
| 2026-04-11 09:07 | 45.23562 | -3.74290 | 37074 ft | 403 kts | 211° |
| 2026-04-11 09:08 | 45.18704 | -3.78274 | 37077 ft | 403 kts | 211° |
| 2026-04-11 09:08 | 45.13841 | -3.82254 | 37079 ft | 404 kts | 211° |
| 2026-04-11 09:09 | 45.08975 | -3.86228 | 37082 ft | 404 kts | 211° |
| 2026-04-11 09:09 | 45.04140 | -3.90293 | 37088 ft | 404 kts | 212° |
| 2026-04-11 09:10 | 44.99332 | -3.94442 | 37088 ft | 405 kts | 212° |
| 2026-04-11 09:10 | 44.94521 | -3.98581 | 37087 ft | 405 kts | 212° |
| 2026-04-11 09:11 | 44.89700 | -4.02705 | 37092 ft | 405 kts | 212° |
| 2026-04-11 09:11 | 44.84912 | -4.06787 | 37097 ft | 405 kts | 212° |
| 2026-04-11 09:12 | 44.80086 | -4.10892 | 37091 ft | 405 kts | 212° |
| 2026-04-11 09:12 | 44.75259 | -4.14990 | 37100 ft | 405 kts | 212° |
| 2026-04-11 09:13 | 44.70432 | -4.19080 | 37097 ft | 405 kts | 212° |
| 2026-04-11 09:13 | 44.65599 | -4.23167 | 37101 ft | 405 kts | 212° |
| 2026-04-11 09:14 | 44.60765 | -4.27247 | 37102 ft | 405 kts | 212° |
| 2026-04-11 09:14 | 44.55932 | -4.31318 | 37107 ft | 406 kts | 212° |
| 2026-04-11 09:15 | 44.51088 | -4.35391 | 37113 ft | 406 kts | 212° |
| 2026-04-11 09:15 | 44.47058 | -4.38774 | 37115 ft | 406 kts | 212° |
| 2026-04-11 09:16 | 44.42204 | -4.42841 | 37112 ft | 407 kts | 212° |
| 2026-04-11 09:16 | 44.37353 | -4.46927 | 37114 ft | 407 kts | 212° |
| 2026-04-11 09:17 | 44.32508 | -4.51035 | 37120 ft | 407 kts | 212° |
| 2026-04-11 09:17 | 44.27659 | -4.55141 | 37119 ft | 408 kts | 212° |
| 2026-04-11 09:18 | 44.22807 | -4.59239 | 37123 ft | 408 kts | 212° |
| 2026-04-11 09:18 | 44.17947 | -4.63333 | 37127 ft | 408 kts | 212° |
| 2026-04-11 09:19 | 44.13088 | -4.67418 | 37132 ft | 408 kts | 212° |
| 2026-04-11 09:19 | 44.08220 | -4.71502 | 37132 ft | 408 kts | 212° |
| 2026-04-11 09:20 | 44.03353 | -4.75579 | 37133 ft | 409 kts | 212° |
| 2026-04-11 09:20 | 43.98476 | -4.79655 | 37141 ft | 409 kts | 212° |
| 2026-04-11 09:21 | 43.93599 | -4.83722 | 37138 ft | 409 kts | 212° |
| 2026-04-11 09:21 | 43.88721 | -4.87784 | 37145 ft | 409 kts | 212° |
| 2026-04-11 09:22 | 43.83839 | -4.91841 | 37148 ft | 409 kts | 212° |
| 2026-04-11 09:22 | 43.78950 | -4.95895 | 37148 ft | 409 kts | 212° |
| 2026-04-11 09:23 | 43.74064 | -4.99940 | 37159 ft | 410 kts | 212° |
| 2026-04-11 09:23 | 43.69166 | -5.03986 | 37151 ft | 410 kts | 212° |
| 2026-04-11 09:24 | 43.64266 | -5.08027 | 37152 ft | 410 kts | 212° |
| 2026-04-11 09:24 | 43.59364 | -5.12061 | 37166 ft | 411 kts | 212° |
| 2026-04-11 09:25 | 43.54449 | -5.16098 | 37167 ft | 411 kts | 212° |
| 2026-04-11 09:25 | 43.49533 | -5.20129 | 37169 ft | 412 kts | 212° |
| 2026-04-11 09:26 | 43.44636 | -5.24136 | 37151 ft | 412 kts | 212° |
| 2026-04-11 09:26 | 43.39709 | -5.28159 | 37165 ft | 412 kts | 212° |
| 2026-04-11 09:27 | 43.34764 | -5.32190 | 37158 ft | 414 kts | 212° |
| 2026-04-11 09:27 | 43.29808 | -5.36223 | 37159 ft | 414 kts | 212° |
| 2026-04-11 09:28 | 43.24839 | -5.40258 | 37152 ft | 415 kts | 212° |
| 2026-04-11 09:28 | 43.19856 | -5.44296 | 37147 ft | 417 kts | 212° |
| 2026-04-11 09:29 | 43.14857 | -5.48340 | 37133 ft | 418 kts | 212° |
| 2026-04-11 09:29 | 43.09846 | -5.52386 | 37125 ft | 419 kts | 212° |
| 2026-04-11 09:30 | 43.04824 | -5.56433 | 37118 ft | 419 kts | 212° |
| 2026-04-11 09:30 | 42.99794 | -5.60477 | 37102 ft | 420 kts | 212° |
| 2026-04-11 09:31 | 42.94762 | -5.64517 | 37095 ft | 419 kts | 212° |
| 2026-04-11 09:31 | 42.89729 | -5.68549 | 37060 ft | 419 kts | 212° |
| 2026-04-11 09:32 | 42.84704 | -5.72567 | 37029 ft | 418 kts | 212° |
| 2026-04-11 09:32 | 42.79691 | -5.76568 | 37020 ft | 418 kts | 212° |
| 2026-04-11 09:33 | 42.74676 | -5.80563 | 37006 ft | 417 kts | 212° |
| 2026-04-11 09:33 | 42.69666 | -5.84547 | 37001 ft | 417 kts | 212° |
| 2026-04-11 09:34 | 42.64683 | -5.88502 | 37000 ft | 418 kts | 212° |
| 2026-04-11 09:34 | 42.59665 | -5.92477 | 37005 ft | 418 kts | 212° |
| 2026-04-11 09:35 | 42.54634 | -5.96455 | 37000 ft | 419 kts | 212° |
| 2026-04-11 09:35 | 42.49595 | -6.00431 | 37003 ft | 420 kts | 212° |
| 2026-04-11 09:36 | 42.44542 | -6.04412 | 37003 ft | 421 kts | 212° |
| 2026-04-11 09:36 | 42.39473 | -6.08396 | 37003 ft | 421 kts | 212° |
| 2026-04-11 09:37 | 42.34395 | -6.12381 | 37000 ft | 422 kts | 212° |
| 2026-04-11 09:37 | 42.29303 | -6.16370 | 36994 ft | 424 kts | 212° |
| 2026-04-11 09:38 | 42.24199 | -6.20359 | 36996 ft | 424 kts | 212° |
| 2026-04-11 09:38 | 42.19090 | -6.24346 | 36996 ft | 425 kts | 212° |
| 2026-04-11 09:39 | 42.13966 | -6.28336 | 36991 ft | 426 kts | 212° |
| 2026-04-11 09:39 | 42.08832 | -6.32327 | 36989 ft | 426 kts | 212° |
| 2026-04-11 09:40 | 42.03694 | -6.36313 | 36972 ft | 427 kts | 212° |
| 2026-04-11 09:40 | 41.98547 | -6.40299 | 36977 ft | 427 kts | 212° |
| 2026-04-11 09:41 | 41.93397 | -6.44280 | 36971 ft | 427 kts | 212° |
| 2026-04-11 09:41 | 41.88248 | -6.48253 | 36970 ft | 427 kts | 212° |
| 2026-04-11 09:42 | 41.83083 | -6.52231 | 36960 ft | 428 kts | 212° |
| 2026-04-11 09:43 | 41.75337 | -6.58184 | 36966 ft | 428 kts | 212° |
| 2026-04-11 09:43 | 41.70167 | -6.62162 | 36967 ft | 428 kts | 214° |
| 2026-04-11 09:44 | 41.65311 | -6.66643 | 36971 ft | 427 kts | 218° |
| 2026-04-11 09:44 | 41.60486 | -6.71296 | 36976 ft | 427 kts | 218° |
| 2026-04-11 09:45 | 41.55657 | -6.75932 | 36984 ft | 428 kts | 218° |
| 2026-04-11 09:45 | 41.50807 | -6.80550 | 36979 ft | 428 kts | 218° |
| 2026-04-11 09:46 | 41.45952 | -6.85152 | 36978 ft | 429 kts | 218° |
| 2026-04-11 09:46 | 41.41085 | -6.89753 | 36999 ft | 429 kts | 218° |
| 2026-04-11 09:47 | 41.36218 | -6.94345 | 36987 ft | 429 kts | 218° |
| 2026-04-11 09:47 | 41.31349 | -6.98931 | 36994 ft | 429 kts | 218° |
| 2026-04-11 09:48 | 41.26472 | -7.03517 | 36988 ft | 430 kts | 218° |
| 2026-04-11 09:48 | 41.21587 | -7.08101 | 37013 ft | 430 kts | 218° |
| 2026-04-11 09:49 | 41.16693 | -7.12686 | 37005 ft | 430 kts | 218° |
| 2026-04-11 09:49 | 41.11795 | -7.17265 | 36999 ft | 431 kts | 218° |
| 2026-04-11 09:50 | 41.06892 | -7.21841 | 37002 ft | 431 kts | 218° |
| 2026-04-11 09:50 | 41.01980 | -7.26416 | 37004 ft | 432 kts | 218° |
| 2026-04-11 09:51 | 40.97063 | -7.30988 | 37002 ft | 432 kts | 218° |
| 2026-04-11 09:51 | 40.92168 | -7.35531 | 36997 ft | 432 kts | 218° |
| 2026-04-11 09:52 | 40.87241 | -7.40095 | 37008 ft | 432 kts | 218° |
| 2026-04-11 09:52 | 40.82313 | -7.44651 | 37009 ft | 432 kts | 218° |
| 2026-04-11 09:53 | 40.77380 | -7.49203 | 37007 ft | 433 kts | 218° |
| 2026-04-11 09:53 | 40.72443 | -7.53752 | 37011 ft | 433 kts | 218° |
| 2026-04-11 09:54 | 40.67499 | -7.58298 | 37008 ft | 434 kts | 218° |
| 2026-04-11 09:54 | 40.62544 | -7.62846 | 37009 ft | 434 kts | 218° |
| 2026-04-11 09:55 | 40.57587 | -7.67387 | 37002 ft | 434 kts | 218° |
| 2026-04-11 09:55 | 40.52622 | -7.71926 | 37013 ft | 434 kts | 218° |
| 2026-04-11 09:56 | 40.47663 | -7.76453 | 37017 ft | 434 kts | 218° |
| 2026-04-11 09:56 | 40.42691 | -7.80983 | 37014 ft | 435 kts | 218° |
| 2026-04-11 09:57 | 40.37711 | -7.85512 | 37013 ft | 436 kts | 218° |
| 2026-04-11 09:57 | 40.32725 | -7.90038 | 37017 ft | 436 kts | 218° |
| 2026-04-11 09:58 | 40.27728 | -7.94566 | 37016 ft | 437 kts | 218° |
| 2026-04-11 09:58 | 40.22727 | -7.99089 | 37017 ft | 437 kts | 218° |
| 2026-04-11 09:59 | 40.17712 | -8.03617 | 37004 ft | 438 kts | 219° |
| 2026-04-11 09:59 | 40.12728 | -8.08107 | 37013 ft | 439 kts | 219° |
| 2026-04-11 10:00 | 40.07700 | -8.12631 | 37011 ft | 439 kts | 218° |
| 2026-04-11 10:00 | 40.02671 | -8.17146 | 37011 ft | 439 kts | 219° |
| 2026-04-11 10:01 | 39.97640 | -8.21655 | 37000 ft | 439 kts | 219° |
| 2026-04-11 10:01 | 39.92615 | -8.26150 | 37016 ft | 438 kts | 219° |
| 2026-04-11 10:02 | 39.87592 | -8.30636 | 37007 ft | 437 kts | 219° |
| 2026-04-11 10:02 | 39.82572 | -8.35111 | 37025 ft | 437 kts | 219° |
| 2026-04-11 10:03 | 39.77549 | -8.39581 | 37016 ft | 438 kts | 219° |
| 2026-04-11 10:03 | 39.73372 | -8.43294 | 37006 ft | 438 kts | 219° |
| 2026-04-11 10:04 | 39.68337 | -8.47761 | 37013 ft | 439 kts | 219° |
| 2026-04-11 10:04 | 39.63264 | -8.52184 | 37024 ft | 440 kts | 218° |
| 2026-04-11 10:05 | 39.58127 | -8.56516 | 37017 ft | 441 kts | 218° |
| 2026-04-11 10:05 | 39.52978 | -8.60844 | 37017 ft | 441 kts | 218° |
| 2026-04-11 10:06 | 39.47825 | -8.65184 | 37026 ft | 442 kts | 218° |
| 2026-04-11 10:06 | 39.42670 | -8.69528 | 37030 ft | 443 kts | 218° |
| 2026-04-11 10:07 | 39.37506 | -8.73873 | 37036 ft | 444 kts | 218° |
| 2026-04-11 10:07 | 39.32322 | -8.78228 | 37029 ft | 445 kts | 218° |
| 2026-04-11 10:08 | 39.27128 | -8.82583 | 37032 ft | 446 kts | 218° |
| 2026-04-11 10:08 | 39.21923 | -8.86939 | 37031 ft | 447 kts | 218° |
| 2026-04-11 10:09 | 39.16704 | -8.91298 | 37043 ft | 447 kts | 218° |
| 2026-04-11 10:09 | 39.11471 | -8.95663 | 37036 ft | 449 kts | 217° |
| 2026-04-11 10:10 | 39.06222 | -9.00032 | 37045 ft | 450 kts | 218° |
| 2026-04-11 10:10 | 39.00963 | -9.04402 | 37047 ft | 451 kts | 217° |
| 2026-04-11 10:11 | 38.95688 | -9.08776 | 37048 ft | 452 kts | 217° |
| 2026-04-11 10:11 | 38.90398 | -9.13156 | 37045 ft | 453 kts | 217° |
| 2026-04-11 10:12 | 38.85102 | -9.17533 | 37043 ft | 453 kts | 217° |
| 2026-04-11 10:12 | 38.79796 | -9.21911 | 37041 ft | 454 kts | 217° |
| 2026-04-11 10:13 | 38.74481 | -9.26288 | 37025 ft | 454 kts | 217° |
| 2026-04-11 10:13 | 38.69196 | -9.30634 | 37018 ft | 455 kts | 217° |
| 2026-04-11 10:14 | 38.63832 | -9.35033 | 37021 ft | 455 kts | 217° |
| 2026-04-11 10:14 | 38.58526 | -9.39376 | 37024 ft | 456 kts | 217° |
| 2026-04-11 10:15 | 38.53179 | -9.43746 | 37040 ft | 457 kts | 217° |
| 2026-04-11 10:15 | 38.47819 | -9.48119 | 37041 ft | 457 kts | 217° |
| 2026-04-11 10:16 | 38.42452 | -9.52491 | 37061 ft | 458 kts | 217° |
| 2026-04-11 10:16 | 38.37076 | -9.56862 | 37057 ft | 459 kts | 217° |
| 2026-04-11 10:17 | 38.31693 | -9.61232 | 37066 ft | 459 kts | 217° |
| 2026-04-11 10:17 | 38.26298 | -9.65604 | 37062 ft | 460 kts | 217° |
| 2026-04-11 10:18 | 38.20894 | -9.69974 | 37076 ft | 461 kts | 217° |
| 2026-04-11 10:18 | 38.15479 | -9.74346 | 37067 ft | 461 kts | 216° |
| 2026-04-11 10:19 | 38.10057 | -9.78716 | 37077 ft | 462 kts | 216° |
| 2026-04-11 10:19 | 38.04619 | -9.83090 | 37077 ft | 463 kts | 216° |
| 2026-04-11 10:20 | 37.99174 | -9.87463 | 37079 ft | 464 kts | 216° |
| 2026-04-11 10:20 | 37.93719 | -9.91835 | 37074 ft | 464 kts | 216° |
| 2026-04-11 10:21 | 37.88256 | -9.96207 | 37085 ft | 465 kts | 216° |
| 2026-04-11 10:21 | 37.82782 | -10.00579 | 37084 ft | 466 kts | 216° |
| 2026-04-11 10:22 | 37.77295 | -10.04954 | 37081 ft | 466 kts | 216° |
| 2026-04-11 10:22 | 37.71807 | -10.09322 | 37085 ft | 467 kts | 216° |
| 2026-04-11 10:23 | 37.66309 | -10.13690 | 37092 ft | 467 kts | 216° |
| 2026-04-11 10:23 | 37.60802 | -10.18058 | 37090 ft | 468 kts | 216° |
| 2026-04-11 10:24 | 37.55290 | -10.22422 | 37091 ft | 468 kts | 216° |
| 2026-04-11 10:24 | 37.49775 | -10.26780 | 37095 ft | 468 kts | 216° |
| 2026-04-11 10:25 | 37.44253 | -10.31137 | 37095 ft | 469 kts | 216° |
| 2026-04-11 10:25 | 37.38723 | -10.35492 | 37093 ft | 469 kts | 215° |
| 2026-04-11 10:26 | 37.33188 | -10.39843 | 37097 ft | 469 kts | 215° |
| 2026-04-11 10:26 | 37.27649 | -10.44189 | 37095 ft | 470 kts | 215° |
| 2026-04-11 10:27 | 37.22102 | -10.48535 | 37102 ft | 470 kts | 215° |
| 2026-04-11 10:27 | 37.16545 | -10.52881 | 37101 ft | 471 kts | 215° |
| 2026-04-11 10:28 | 37.10984 | -10.57221 | 37100 ft | 471 kts | 215° |
| 2026-04-11 10:28 | 37.05413 | -10.61563 | 37105 ft | 472 kts | 215° |
| 2026-04-11 10:29 | 36.99829 | -10.65906 | 37108 ft | 473 kts | 215° |
| 2026-04-11 10:29 | 36.94237 | -10.70248 | 37111 ft | 474 kts | 215° |
| 2026-04-11 10:30 | 36.88635 | -10.74591 | 37112 ft | 474 kts | 215° |
| 2026-04-11 10:30 | 36.83055 | -10.78909 | 37114 ft | 475 kts | 215° |
| 2026-04-11 10:31 | 36.77430 | -10.83254 | 37113 ft | 476 kts | 215° |
| 2026-04-11 10:31 | 36.71796 | -10.87598 | 37115 ft | 477 kts | 215° |
| 2026-04-11 10:32 | 36.66147 | -10.91947 | 37117 ft | 477 kts | 215° |
| 2026-04-11 10:32 | 36.60493 | -10.96291 | 37115 ft | 478 kts | 214° |
| 2026-04-11 10:33 | 36.54827 | -11.00637 | 37121 ft | 479 kts | 214° |
| 2026-04-11 10:33 | 36.49154 | -11.04982 | 37125 ft | 479 kts | 214° |
| 2026-04-11 10:34 | 36.43468 | -11.09328 | 37123 ft | 480 kts | 214° |
| 2026-04-11 10:34 | 36.37777 | -11.13671 | 37125 ft | 481 kts | 214° |
| 2026-04-11 10:35 | 36.32077 | -11.18013 | 37126 ft | 481 kts | 214° |
| 2026-04-11 10:35 | 36.26365 | -11.22357 | 37130 ft | 482 kts | 214° |
| 2026-04-11 10:36 | 36.20639 | -11.26704 | 37135 ft | 483 kts | 214° |
| 2026-04-11 10:36 | 36.14910 | -11.31046 | 37136 ft | 484 kts | 214° |
| 2026-04-11 10:37 | 36.09163 | -11.35393 | 37138 ft | 485 kts | 214° |
| 2026-04-11 10:37 | 36.03406 | -11.39742 | 37136 ft | 485 kts | 214° |
| 2026-04-11 10:38 | 35.97638 | -11.44092 | 37138 ft | 486 kts | 214° |
| 2026-04-11 10:38 | 35.88637 | -11.49982 | 37138 ft | 489 kts | 209° |
| 2026-04-11 10:39 | 35.82525 | -11.53708 | 37135 ft | 490 kts | 209° |
| 2026-04-11 10:39 | 35.76417 | -11.57464 | 37137 ft | 491 kts | 209° |
| 2026-04-11 10:40 | 35.70315 | -11.61249 | 37141 ft | 492 kts | 210° |
| 2026-04-11 10:40 | 35.64205 | -11.65047 | 37135 ft | 493 kts | 210° |
| 2026-04-11 10:41 | 35.58080 | -11.68849 | 37147 ft | 493 kts | 210° |
| 2026-04-11 10:41 | 35.51940 | -11.72650 | 37138 ft | 495 kts | 210° |
| 2026-04-11 10:42 | 35.45789 | -11.76451 | 37147 ft | 496 kts | 210° |
| 2026-04-11 10:42 | 35.39621 | -11.80256 | 37144 ft | 497 kts | 210° |
| 2026-04-11 10:43 | 35.30343 | -11.85966 | 37152 ft | 498 kts | 209° |
| 2026-04-11 10:44 | 35.24140 | -11.89776 | 37149 ft | 499 kts | 209° |
| 2026-04-11 10:44 | 35.17924 | -11.93587 | 37148 ft | 500 kts | 209° |
| 2026-04-11 10:45 | 35.11699 | -11.97398 | 37148 ft | 501 kts | 209° |
| 2026-04-11 10:45 | 35.05460 | -12.01209 | 37154 ft | 502 kts | 209° |
| 2026-04-11 10:46 | 34.99208 | -12.05023 | 37147 ft | 503 kts | 209° |
| 2026-04-11 10:46 | 34.92992 | -12.08808 | 37156 ft | 503 kts | 209° |
| 2026-04-11 10:47 | 34.86721 | -12.12620 | 37148 ft | 504 kts | 209° |
| 2026-04-11 10:47 | 34.80448 | -12.16427 | 37158 ft | 504 kts | 209° |
| 2026-04-11 10:48 | 34.75182 | -12.19618 | 37152 ft | 505 kts | 209° |
| 2026-04-11 10:48 | 34.68894 | -12.23421 | 37164 ft | 505 kts | 209° |
| 2026-04-11 10:49 | 34.62592 | -12.27227 | 37159 ft | 506 kts | 209° |
| 2026-04-11 10:49 | 34.56291 | -12.31026 | 37157 ft | 506 kts | 209° |
| 2026-04-11 10:50 | 34.50013 | -12.34804 | 37167 ft | 507 kts | 209° |
| 2026-04-11 10:50 | 34.43687 | -12.38605 | 37164 ft | 508 kts | 208° |
| 2026-04-11 10:51 | 34.37354 | -12.42404 | 37161 ft | 509 kts | 209° |
| 2026-04-11 10:51 | 34.31003 | -12.46207 | 37167 ft | 509 kts | 208° |
| 2026-04-11 10:52 | 34.24643 | -12.50009 | 37161 ft | 510 kts | 208° |
| 2026-04-11 10:52 | 34.18273 | -12.53810 | 37170 ft | 511 kts | 208° |
| 2026-04-11 10:53 | 34.11890 | -12.57612 | 37169 ft | 512 kts | 208° |
| 2026-04-11 10:53 | 34.05497 | -12.61415 | 37170 ft | 513 kts | 208° |
| 2026-04-11 10:54 | 33.99082 | -12.65224 | 37162 ft | 514 kts | 208° |
| 2026-04-11 10:54 | 33.92660 | -12.69030 | 37176 ft | 515 kts | 208° |
| 2026-04-11 10:55 | 33.86226 | -12.72837 | 37167 ft | 516 kts | 208° |
| 2026-04-11 10:55 | 33.79821 | -12.76621 | 37172 ft | 517 kts | 208° |
| 2026-04-11 10:56 | 33.73362 | -12.80430 | 37171 ft | 517 kts | 208° |
| 2026-04-11 10:56 | 33.66899 | -12.84235 | 37177 ft | 518 kts | 208° |
| 2026-04-11 10:57 | 33.60420 | -12.88043 | 37171 ft | 519 kts | 208° |
| 2026-04-11 10:57 | 33.53933 | -12.91850 | 37182 ft | 519 kts | 208° |
| 2026-04-11 10:58 | 33.47438 | -12.95655 | 37172 ft | 520 kts | 208° |
| 2026-04-11 10:58 | 33.40933 | -12.99458 | 37182 ft | 521 kts | 208° |
| 2026-04-11 10:59 | 33.34414 | -13.03265 | 37176 ft | 521 kts | 208° |
| 2026-04-11 10:59 | 33.27887 | -13.07069 | 37184 ft | 522 kts | 208° |
| 2026-04-11 11:00 | 33.21353 | -13.10870 | 37177 ft | 523 kts | 208° |
| 2026-04-11 11:00 | 33.14809 | -13.14672 | 37187 ft | 523 kts | 208° |
| 2026-04-11 11:01 | 33.08256 | -13.18472 | 37183 ft | 524 kts | 208° |
| 2026-04-11 11:01 | 33.01695 | -13.22271 | 37191 ft | 525 kts | 208° |
| 2026-04-11 11:02 | 32.95122 | -13.26070 | 37184 ft | 525 kts | 208° |
| 2026-04-11 11:02 | 32.88548 | -13.29863 | 37193 ft | 526 kts | 208° |
| 2026-04-11 11:03 | 32.81963 | -13.33657 | 37185 ft | 526 kts | 208° |
| 2026-04-11 11:03 | 32.75370 | -13.37447 | 37192 ft | 526 kts | 208° |
| 2026-04-11 11:04 | 32.68770 | -13.41236 | 37190 ft | 527 kts | 208° |
| 2026-04-11 11:04 | 32.62164 | -13.45024 | 37194 ft | 528 kts | 208° |
| 2026-04-11 11:05 | 32.55555 | -13.48807 | 37187 ft | 528 kts | 208° |
| 2026-04-11 11:05 | 32.48939 | -13.52587 | 37185 ft | 528 kts | 208° |
| 2026-04-11 11:06 | 32.42326 | -13.56359 | 37185 ft | 527 kts | 208° |
| 2026-04-11 11:06 | 32.35726 | -13.60117 | 37177 ft | 526 kts | 208° |
| 2026-04-11 11:07 | 32.29135 | -13.63864 | 37188 ft | 525 kts | 208° |
| 2026-04-11 11:07 | 32.22563 | -13.67595 | 37184 ft | 523 kts | 208° |
| 2026-04-11 11:08 | 32.16010 | -13.71308 | 37190 ft | 522 kts | 208° |
| 2026-04-11 11:08 | 32.09477 | -13.75005 | 37185 ft | 520 kts | 209° |
| 2026-04-11 11:09 | 32.02960 | -13.78686 | 37189 ft | 518 kts | 209° |
| 2026-04-11 11:09 | 31.96460 | -13.82353 | 37192 ft | 517 kts | 209° |
| 2026-04-11 11:10 | 31.90026 | -13.85976 | 37194 ft | 516 kts | 209° |
| 2026-04-11 11:10 | 31.83514 | -13.89637 | 37188 ft | 514 kts | 209° |
| 2026-04-11 11:11 | 31.77062 | -13.93259 | 37194 ft | 514 kts | 209° |
| 2026-04-11 11:11 | 31.70656 | -13.96850 | 37190 ft | 513 kts | 209° |
| 2026-04-11 11:12 | 31.64172 | -14.00479 | 37199 ft | 513 kts | 209° |
| 2026-04-11 11:12 | 31.57730 | -14.04079 | 37200 ft | 513 kts | 209° |
| 2026-04-11 11:13 | 31.51287 | -14.07674 | 37205 ft | 513 kts | 209° |
| 2026-04-11 11:13 | 31.44884 | -14.11241 | 37204 ft | 513 kts | 210° |
| 2026-04-11 11:14 | 31.38438 | -14.14826 | 37207 ft | 513 kts | 210° |
| 2026-04-11 11:14 | 31.31995 | -14.18405 | 37201 ft | 512 kts | 210° |
| 2026-04-11 11:15 | 31.25559 | -14.21974 | 37203 ft | 512 kts | 210° |
| 2026-04-11 11:15 | 31.19122 | -14.25538 | 37198 ft | 511 kts | 210° |
| 2026-04-11 11:16 | 31.12696 | -14.29090 | 37216 ft | 510 kts | 210° |
| 2026-04-11 11:16 | 31.06283 | -14.32631 | 37203 ft | 509 kts | 210° |
| 2026-04-11 11:17 | 30.99884 | -14.36159 | 37204 ft | 508 kts | 210° |
| 2026-04-11 11:17 | 30.93493 | -14.39678 | 37200 ft | 507 kts | 210° |
| 2026-04-11 11:18 | 30.86989 | -14.42857 | 37219 ft | 510 kts | 202° |
| 2026-04-11 11:18 | 30.80221 | -14.45330 | 37207 ft | 509 kts | 201° |
| 2026-04-11 11:19 | 30.73454 | -14.47735 | 37205 ft | 508 kts | 201° |
| 2026-04-11 11:19 | 30.66715 | -14.50175 | 37208 ft | 506 kts | 202° |
| 2026-04-11 11:20 | 30.60002 | -14.52638 | 37213 ft | 505 kts | 202° |
| 2026-04-11 11:20 | 30.53311 | -14.55098 | 37215 ft | 504 kts | 202° |
| 2026-04-11 11:21 | 30.46627 | -14.57551 | 37213 ft | 503 kts | 202° |
| 2026-04-11 11:21 | 30.39956 | -14.59993 | 37211 ft | 502 kts | 202° |
| 2026-04-11 11:22 | 30.33298 | -14.62425 | 37214 ft | 501 kts | 202° |
| 2026-04-11 11:22 | 30.26645 | -14.64852 | 37208 ft | 500 kts | 202° |
| 2026-04-11 11:23 | 30.20011 | -14.67269 | 37211 ft | 500 kts | 202° |
| 2026-04-11 11:23 | 30.13431 | -14.69663 | 37206 ft | 498 kts | 202° |
| 2026-04-11 11:23 | 30.10124 | -14.70861 | 36975 ft | 480 kts | 202° |
| 2026-04-11 11:24 | 30.07049 | -14.71967 | 37029 ft | 459 kts | 202° |
| 2026-04-11 11:24 | 30.04054 | -14.73045 | 37090 ft | 443 kts | 203° |
| 2026-04-11 11:24 | 30.01170 | -14.74086 | 37117 ft | 427 kts | 203° |
| 2026-04-11 11:25 | 29.95513 | -14.76145 | 37214 ft | 425 kts | 203° |
| 2026-04-11 11:25 | 29.89871 | -14.78205 | 37241 ft | 430 kts | 203° |
| 2026-04-11 11:26 | 29.84118 | -14.80293 | 37230 ft | 436 kts | 203° |
| 2026-04-11 11:26 | 29.78291 | -14.82399 | 37230 ft | 442 kts | 202° |
| 2026-04-11 11:27 | 29.72396 | -14.84524 | 37220 ft | 446 kts | 202° |
| 2026-04-11 11:27 | 29.66458 | -14.86662 | 37223 ft | 449 kts | 202° |
| 2026-04-11 11:28 | 29.60481 | -14.88811 | 37217 ft | 451 kts | 202° |
| 2026-04-11 11:28 | 29.54492 | -14.90962 | 37220 ft | 451 kts | 202° |
| 2026-04-11 11:29 | 29.45521 | -14.94179 | 37216 ft | 449 kts | 202° |
| 2026-04-11 11:29 | 29.39564 | -14.96312 | 37216 ft | 448 kts | 202° |
| 2026-04-11 11:30 | 29.33623 | -14.98437 | 37218 ft | 446 kts | 202° |
| 2026-04-11 11:30 | 29.27710 | -15.00550 | 37218 ft | 444 kts | 202° |
| 2026-04-11 11:31 | 29.21816 | -15.02654 | 37220 ft | 443 kts | 202° |
| 2026-04-11 11:31 | 29.15942 | -15.04748 | 37220 ft | 441 kts | 202° |
| 2026-04-11 11:32 | 29.10088 | -15.06833 | 37224 ft | 440 kts | 202° |
| 2026-04-11 11:32 | 29.05224 | -15.08563 | 37223 ft | 440 kts | 202° |
| 2026-04-11 11:33 | 28.99380 | -15.10640 | 37223 ft | 440 kts | 202° |
| 2026-04-11 11:33 | 28.93532 | -15.12716 | 37228 ft | 440 kts | 202° |
| 2026-04-11 11:34 | 28.87679 | -15.14790 | 37223 ft | 441 kts | 202° |
| 2026-04-11 11:34 | 28.81812 | -15.16867 | 37227 ft | 442 kts | 202° |
| 2026-04-11 11:35 | 28.75939 | -15.18945 | 37227 ft | 443 kts | 202° |
| 2026-04-11 11:35 | 28.70050 | -15.21024 | 37227 ft | 443 kts | 202° |
| 2026-04-11 11:36 | 28.64153 | -15.23105 | 37226 ft | 444 kts | 202° |
| 2026-04-11 11:36 | 28.58245 | -15.25186 | 37221 ft | 445 kts | 202° |
| 2026-04-11 11:37 | 28.52328 | -15.27269 | 37222 ft | 445 kts | 202° |
| 2026-04-11 11:37 | 28.46449 | -15.29335 | 37221 ft | 445 kts | 202° |
| 2026-04-11 11:38 | 28.40489 | -15.31428 | 37222 ft | 445 kts | 202° |
| 2026-04-11 11:38 | 28.34575 | -15.33502 | 37226 ft | 445 kts | 202° |
| 2026-04-11 11:39 | 28.28673 | -15.35570 | 37220 ft | 444 kts | 202° |
| 2026-04-11 11:39 | 28.22771 | -15.37635 | 37217 ft | 443 kts | 202° |
| 2026-04-11 11:40 | 28.16932 | -15.39677 | 37215 ft | 443 kts | 202° |
| 2026-04-11 11:40 | 28.11050 | -15.41730 | 37211 ft | 442 kts | 202° |
| 2026-04-11 11:41 | 28.05459 | -15.44412 | 37203 ft | 432 kts | 217° |
| 2026-04-11 11:41 | 28.00454 | -15.48145 | 37211 ft | 431 kts | 218° |
| 2026-04-11 11:42 | 27.95455 | -15.51888 | 37208 ft | 431 kts | 217° |
| 2026-04-11 11:42 | 27.90433 | -15.55595 | 37208 ft | 431 kts | 217° |
| 2026-04-11 11:43 | 27.85408 | -15.59282 | 37201 ft | 431 kts | 217° |
| 2026-04-11 11:43 | 27.80388 | -15.62958 | 37218 ft | 429 kts | 217° |
| 2026-04-11 11:44 | 27.75372 | -15.66632 | 37200 ft | 430 kts | 217° |
| 2026-04-11 11:44 | 27.70354 | -15.70302 | 37207 ft | 430 kts | 217° |
| 2026-04-11 11:45 | 27.65332 | -15.73975 | 37205 ft | 430 kts | 217° |
| 2026-04-11 11:45 | 27.60307 | -15.77648 | 37201 ft | 431 kts | 217° |
| 2026-04-11 11:46 | 27.55276 | -15.81323 | 37213 ft | 431 kts | 217° |
| 2026-04-11 11:46 | 27.50238 | -15.84999 | 37212 ft | 431 kts | 217° |
| 2026-04-11 11:47 | 27.45198 | -15.88671 | 37205 ft | 432 kts | 217° |
| 2026-04-11 11:47 | 27.40159 | -15.92339 | 37212 ft | 431 kts | 217° |
| 2026-04-11 11:48 | 27.35118 | -15.96005 | 37214 ft | 431 kts | 217° |
| 2026-04-11 11:48 | 27.30085 | -15.99661 | 37209 ft | 431 kts | 217° |
| 2026-04-11 11:49 | 27.25052 | -16.03312 | 37213 ft | 430 kts | 217° |
| 2026-04-11 11:49 | 27.20026 | -16.06955 | 37214 ft | 429 kts | 217° |
| 2026-04-11 11:50 | 27.15010 | -16.10587 | 37215 ft | 429 kts | 217° |
| 2026-04-11 11:50 | 27.10003 | -16.14208 | 37213 ft | 428 kts | 217° |
| 2026-04-11 11:51 | 27.04999 | -16.17823 | 37211 ft | 427 kts | 217° |
| 2026-04-11 11:51 | 27.00011 | -16.21423 | 37218 ft | 426 kts | 217° |
| 2026-04-11 11:52 | 26.95028 | -16.25017 | 37215 ft | 426 kts | 217° |
| 2026-04-11 11:52 | 26.90047 | -16.28604 | 37218 ft | 425 kts | 217° |
| 2026-04-11 11:53 | 26.85064 | -16.32179 | 37215 ft | 425 kts | 217° |
| 2026-04-11 11:53 | 26.80078 | -16.35743 | 37221 ft | 425 kts | 217° |
| 2026-04-11 11:54 | 26.75091 | -16.39307 | 37220 ft | 425 kts | 217° |
| 2026-04-11 11:54 | 26.70102 | -16.42870 | 37221 ft | 425 kts | 217° |
| 2026-04-11 11:55 | 26.65147 | -16.46406 | 37225 ft | 426 kts | 217° |
| 2026-04-11 11:55 | 26.60158 | -16.49963 | 37222 ft | 426 kts | 217° |
| 2026-04-11 11:56 | 26.55164 | -16.53519 | 37219 ft | 426 kts | 217° |
| 2026-04-11 11:56 | 26.50164 | -16.57075 | 37219 ft | 426 kts | 217° |
| 2026-04-11 11:57 | 26.45169 | -16.60625 | 37221 ft | 426 kts | 217° |
| 2026-04-11 11:57 | 26.40178 | -16.64168 | 37225 ft | 425 kts | 217° |
| 2026-04-11 11:58 | 26.35183 | -16.67711 | 37221 ft | 425 kts | 218° |
| 2026-04-11 11:58 | 26.30191 | -16.71247 | 37220 ft | 425 kts | 218° |
| 2026-04-11 11:59 | 26.25204 | -16.74778 | 37222 ft | 424 kts | 218° |
| 2026-04-11 11:59 | 26.20218 | -16.78303 | 37225 ft | 424 kts | 218° |
| 2026-04-11 12:00 | 26.15241 | -16.81825 | 37222 ft | 424 kts | 218° |
| 2026-04-11 12:00 | 26.10273 | -16.85346 | 37223 ft | 423 kts | 218° |
| 2026-04-11 12:01 | 26.05307 | -16.88862 | 37221 ft | 423 kts | 218° |
| 2026-04-11 12:01 | 26.00350 | -16.92368 | 37219 ft | 422 kts | 218° |
| 2026-04-11 12:02 | 25.95390 | -16.95873 | 37223 ft | 422 kts | 218° |
| 2026-04-11 12:02 | 25.90436 | -16.99370 | 37222 ft | 422 kts | 218° |
| 2026-04-11 12:03 | 25.85483 | -17.02863 | 37226 ft | 422 kts | 218° |
| 2026-04-11 12:03 | 25.80534 | -17.06349 | 37224 ft | 421 kts | 218° |
| 2026-04-11 12:04 | 25.75579 | -17.09836 | 37220 ft | 422 kts | 218° |
| 2026-04-11 12:04 | 25.70624 | -17.13319 | 37225 ft | 422 kts | 218° |
| 2026-04-11 12:05 | 25.65673 | -17.16796 | 37226 ft | 422 kts | 218° |
| 2026-04-11 12:05 | 25.60712 | -17.20276 | 37220 ft | 422 kts | 218° |
| 2026-04-11 12:06 | 25.55751 | -17.23754 | 37217 ft | 422 kts | 218° |
| 2026-04-11 12:06 | 25.50792 | -17.27226 | 37231 ft | 422 kts | 218° |
| 2026-04-11 12:07 | 25.45834 | -17.30694 | 37224 ft | 421 kts | 218° |
| 2026-04-11 12:07 | 25.40878 | -17.34157 | 37219 ft | 421 kts | 218° |
| 2026-04-11 12:08 | 25.35959 | -17.37591 | 37223 ft | 421 kts | 218° |
| 2026-04-11 12:08 | 25.31014 | -17.41041 | 37221 ft | 420 kts | 218° |
| 2026-04-11 12:09 | 25.26076 | -17.44481 | 37221 ft | 419 kts | 218° |
| 2026-04-11 12:09 | 25.21112 | -17.47937 | 37222 ft | 418 kts | 218° |
| 2026-04-11 12:10 | 25.16226 | -17.51334 | 37221 ft | 417 kts | 218° |
| 2026-04-11 12:10 | 25.11317 | -17.54746 | 37223 ft | 416 kts | 218° |
| 2026-04-11 12:11 | 25.06420 | -17.58146 | 37219 ft | 415 kts | 218° |
| 2026-04-11 12:11 | 25.01535 | -17.61534 | 37215 ft | 414 kts | 218° |
| 2026-04-11 12:12 | 24.96661 | -17.64906 | 37221 ft | 413 kts | 218° |
| 2026-04-11 12:12 | 24.91796 | -17.68261 | 37217 ft | 412 kts | 219° |
| 2026-04-11 12:13 | 24.86942 | -17.71607 | 37221 ft | 411 kts | 219° |
| 2026-04-11 12:13 | 24.82100 | -17.74943 | 37220 ft | 410 kts | 219° |
| 2026-04-11 12:14 | 24.77267 | -17.78271 | 37223 ft | 409 kts | 219° |
| 2026-04-11 12:14 | 24.72446 | -17.81587 | 37221 ft | 408 kts | 219° |
| 2026-04-11 12:15 | 24.67633 | -17.84895 | 37223 ft | 408 kts | 219° |
| 2026-04-11 12:15 | 24.62827 | -17.88194 | 37220 ft | 407 kts | 219° |
| 2026-04-11 12:16 | 24.58026 | -17.91488 | 37219 ft | 406 kts | 219° |
| 2026-04-11 12:16 | 24.54041 | -17.94220 | 37219 ft | 406 kts | 219° |
| 2026-04-11 12:17 | 24.49252 | -17.97499 | 37220 ft | 405 kts | 219° |
| 2026-04-11 12:17 | 24.44464 | -18.00775 | 37220 ft | 405 kts | 219° |
| 2026-04-11 12:18 | 24.39684 | -18.04043 | 37218 ft | 405 kts | 219° |
| 2026-04-11 12:19 | 24.32517 | -18.08937 | 37219 ft | 404 kts | 219° |
| 2026-04-11 12:19 | 24.27743 | -18.12192 | 37215 ft | 404 kts | 219° |
| 2026-04-11 12:20 | 24.22973 | -18.15443 | 37215 ft | 404 kts | 219° |
| 2026-04-11 12:20 | 24.18201 | -18.18692 | 37220 ft | 403 kts | 219° |
| 2026-04-11 12:21 | 24.13438 | -18.21932 | 37220 ft | 403 kts | 219° |
| 2026-04-11 12:21 | 24.08707 | -18.25147 | 37221 ft | 403 kts | 219° |
| 2026-04-11 12:22 | 24.03951 | -18.28376 | 37216 ft | 402 kts | 219° |
| 2026-04-11 12:22 | 23.99197 | -18.31602 | 37218 ft | 402 kts | 219° |
| 2026-04-11 12:23 | 23.94446 | -18.34822 | 37217 ft | 401 kts | 219° |
| 2026-04-11 12:23 | 23.89703 | -18.38034 | 37213 ft | 401 kts | 219° |
| 2026-04-11 12:24 | 23.84966 | -18.41239 | 37214 ft | 400 kts | 219° |
| 2026-04-11 12:24 | 23.80238 | -18.44435 | 37221 ft | 400 kts | 219° |
| 2026-04-11 12:25 | 23.75507 | -18.47631 | 37217 ft | 399 kts | 220° |
| 2026-04-11 12:25 | 23.70789 | -18.50815 | 37217 ft | 399 kts | 220° |
| 2026-04-11 12:26 | 23.66072 | -18.53995 | 37220 ft | 398 kts | 220° |
| 2026-04-11 12:26 | 23.61359 | -18.57171 | 37217 ft | 398 kts | 220° |
| 2026-04-11 12:27 | 23.56648 | -18.60342 | 37215 ft | 398 kts | 220° |
| 2026-04-11 12:27 | 23.51943 | -18.63506 | 37209 ft | 397 kts | 220° |
| 2026-04-11 12:28 | 23.47246 | -18.66663 | 37217 ft | 397 kts | 220° |
| 2026-04-11 12:28 | 23.42546 | -18.69818 | 37213 ft | 396 kts | 220° |
| 2026-04-11 12:29 | 23.37858 | -18.72963 | 37215 ft | 396 kts | 220° |
| 2026-04-11 12:29 | 23.33203 | -18.76084 | 37210 ft | 395 kts | 220° |
| 2026-04-11 12:30 | 23.28521 | -18.79220 | 37212 ft | 395 kts | 220° |
| 2026-04-11 12:30 | 23.23845 | -18.82348 | 37212 ft | 395 kts | 220° |
| 2026-04-11 12:31 | 23.19172 | -18.85473 | 37210 ft | 394 kts | 220° |
| 2026-04-11 12:31 | 23.14501 | -18.88594 | 37209 ft | 394 kts | 220° |
| 2026-04-11 12:32 | 23.09835 | -18.91708 | 37209 ft | 393 kts | 220° |
| 2026-04-11 12:32 | 23.05179 | -18.94814 | 37208 ft | 393 kts | 220° |
| 2026-04-11 12:33 | 23.00517 | -18.97920 | 37204 ft | 393 kts | 220° |
| 2026-04-11 12:33 | 22.95862 | -19.01020 | 37206 ft | 392 kts | 220° |
| 2026-04-11 12:34 | 22.91211 | -19.04115 | 37202 ft | 392 kts | 220° |
| 2026-04-11 12:34 | 22.86561 | -19.07206 | 37204 ft | 392 kts | 220° |
| 2026-04-11 12:35 | 22.81914 | -19.10293 | 37204 ft | 392 kts | 220° |
| 2026-04-11 12:35 | 22.77270 | -19.13375 | 37204 ft | 391 kts | 220° |
| 2026-04-11 12:36 | 22.72629 | -19.16453 | 37196 ft | 391 kts | 220° |
| 2026-04-11 12:36 | 22.67986 | -19.19530 | 37194 ft | 391 kts | 220° |
| 2026-04-11 12:37 | 22.63383 | -19.22577 | 37191 ft | 390 kts | 220° |
| 2026-04-11 12:37 | 22.58755 | -19.25639 | 37187 ft | 390 kts | 220° |
| 2026-04-11 12:38 | 22.54125 | -19.28700 | 37200 ft | 390 kts | 220° |
| 2026-04-11 12:38 | 22.49503 | -19.31753 | 37200 ft | 389 kts | 220° |
| 2026-04-11 12:39 | 22.44884 | -19.34801 | 37188 ft | 389 kts | 219° |
| 2026-04-11 12:39 | 22.40267 | -19.37846 | 37197 ft | 389 kts | 219° |
| 2026-04-11 12:40 | 22.35655 | -19.40886 | 37194 ft | 388 kts | 219° |
| 2026-04-11 12:40 | 22.31046 | -19.43921 | 37193 ft | 388 kts | 219° |
| 2026-04-11 12:41 | 22.26438 | -19.46953 | 37192 ft | 388 kts | 219° |
| 2026-04-11 12:41 | 22.21836 | -19.49979 | 37194 ft | 387 kts | 219° |
| 2026-04-11 12:42 | 22.17234 | -19.53003 | 37190 ft | 387 kts | 219° |
| 2026-04-11 12:42 | 22.12640 | -19.56020 | 37186 ft | 386 kts | 219° |
| 2026-04-11 12:43 | 22.05754 | -19.60535 | 37187 ft | 386 kts | 219° |
| 2026-04-11 12:43 | 22.01167 | -19.63539 | 37189 ft | 386 kts | 219° |
| 2026-04-11 12:44 | 21.96587 | -19.66537 | 37188 ft | 385 kts | 219° |
| 2026-04-11 12:44 | 21.92008 | -19.69533 | 37182 ft | 385 kts | 219° |
| 2026-04-11 12:45 | 21.87431 | -19.72526 | 37185 ft | 385 kts | 219° |
| 2026-04-11 12:45 | 21.82858 | -19.75514 | 37184 ft | 384 kts | 219° |
| 2026-04-11 12:46 | 21.78288 | -19.78499 | 37184 ft | 384 kts | 219° |
| 2026-04-11 12:46 | 21.73720 | -19.81479 | 37179 ft | 384 kts | 219° |
| 2026-04-11 12:47 | 21.69190 | -19.84432 | 37178 ft | 383 kts | 219° |
| 2026-04-11 12:47 | 21.64627 | -19.87404 | 37180 ft | 383 kts | 219° |
| 2026-04-11 12:48 | 21.60072 | -19.90370 | 37179 ft | 383 kts | 219° |
| 2026-04-11 12:48 | 21.55511 | -19.93336 | 37179 ft | 383 kts | 219° |
| 2026-04-11 12:49 | 21.50959 | -19.96296 | 37181 ft | 382 kts | 219° |
| 2026-04-11 12:49 | 21.46407 | -19.99252 | 37176 ft | 382 kts | 219° |
| 2026-04-11 12:50 | 21.41861 | -20.02203 | 37175 ft | 382 kts | 219° |
| 2026-04-11 12:50 | 21.37313 | -20.05153 | 37170 ft | 382 kts | 219° |
| 2026-04-11 12:51 | 21.32768 | -20.08098 | 37171 ft | 382 kts | 219° |
| 2026-04-11 12:51 | 21.28226 | -20.11040 | 37170 ft | 381 kts | 219° |
| 2026-04-11 12:52 | 21.23682 | -20.13980 | 37168 ft | 381 kts | 219° |
| 2026-04-11 12:52 | 21.19143 | -20.16916 | 37169 ft | 381 kts | 219° |
| 2026-04-11 12:53 | 21.14603 | -20.19850 | 37166 ft | 381 kts | 219° |
| 2026-04-11 12:53 | 21.10058 | -20.22784 | 37166 ft | 381 kts | 219° |
| 2026-04-11 12:54 | 21.05516 | -20.25715 | 37163 ft | 381 kts | 219° |
| 2026-04-11 12:54 | 21.00967 | -20.28649 | 37166 ft | 382 kts | 219° |
| 2026-04-11 12:55 | 20.96449 | -20.31560 | 37163 ft | 382 kts | 219° |
| 2026-04-11 12:55 | 20.91896 | -20.34492 | 37162 ft | 382 kts | 218° |
| 2026-04-11 12:56 | 20.87339 | -20.37424 | 37168 ft | 382 kts | 218° |
| 2026-04-11 12:56 | 20.82781 | -20.40355 | 37164 ft | 382 kts | 218° |
| 2026-04-11 12:57 | 20.78221 | -20.43285 | 37161 ft | 383 kts | 218° |
| 2026-04-11 12:57 | 20.73658 | -20.46214 | 37158 ft | 383 kts | 218° |
| 2026-04-11 12:58 | 20.69089 | -20.49146 | 37160 ft | 383 kts | 218° |
| 2026-04-11 12:58 | 20.64521 | -20.52075 | 37160 ft | 383 kts | 218° |
| 2026-04-11 12:59 | 20.59946 | -20.55006 | 37159 ft | 383 kts | 218° |
| 2026-04-11 12:59 | 20.55372 | -20.57935 | 37158 ft | 384 kts | 218° |
| 2026-04-11 13:00 | 20.50792 | -20.60866 | 37158 ft | 384 kts | 218° |
| 2026-04-11 13:00 | 20.46211 | -20.63795 | 37157 ft | 384 kts | 218° |
| 2026-04-11 13:01 | 20.39335 | -20.68188 | 37157 ft | 384 kts | 218° |
| 2026-04-11 13:02 | 20.34746 | -20.71115 | 37155 ft | 384 kts | 218° |
| 2026-04-11 13:02 | 20.30155 | -20.74034 | 37156 ft | 385 kts | 218° |
| 2026-04-11 13:03 | 20.25556 | -20.76954 | 37152 ft | 385 kts | 218° |
| 2026-04-11 13:03 | 20.20961 | -20.79872 | 37152 ft | 385 kts | 218° |
| 2026-04-11 13:04 | 20.16365 | -20.82790 | 37156 ft | 385 kts | 218° |
| 2026-04-11 13:04 | 20.11766 | -20.85707 | 37156 ft | 385 kts | 218° |
| 2026-04-11 13:05 | 20.07944 | -20.88131 | 37153 ft | 385 kts | 218° |
| 2026-04-11 13:05 | 20.02596 | -20.91518 | 37155 ft | 385 kts | 217° |
| 2026-04-11 13:06 | 19.97993 | -20.94433 | 37152 ft | 385 kts | 217° |
| 2026-04-11 13:06 | 19.94133 | -20.96875 | 37148 ft | 385 kts | 217° |
| 2026-04-11 13:07 | 19.89525 | -20.99788 | 37153 ft | 385 kts | 217° |
| 2026-04-11 13:07 | 19.84916 | -21.02700 | 37147 ft | 386 kts | 217° |
| 2026-04-11 13:08 | 19.80305 | -21.05612 | 37148 ft | 386 kts | 217° |
| 2026-04-11 13:08 | 19.75724 | -21.08502 | 37147 ft | 386 kts | 217° |
| 2026-04-11 13:09 | 19.71110 | -21.11412 | 37148 ft | 386 kts | 217° |
| 2026-04-11 13:09 | 19.66497 | -21.14319 | 37148 ft | 386 kts | 217° |
| 2026-04-11 13:10 | 19.61878 | -21.17228 | 37147 ft | 386 kts | 217° |
| 2026-04-11 13:10 | 19.57261 | -21.20133 | 37143 ft | 386 kts | 217° |
| 2026-04-11 13:11 | 19.52640 | -21.23039 | 37141 ft | 386 kts | 217° |
| 2026-04-11 13:11 | 19.48019 | -21.25943 | 37140 ft | 386 kts | 217° |
| 2026-04-11 13:12 | 19.43391 | -21.28849 | 37144 ft | 386 kts | 217° |
| 2026-04-11 13:12 | 19.38766 | -21.31752 | 37142 ft | 386 kts | 217° |
| 2026-04-11 13:13 | 19.34137 | -21.34655 | 37138 ft | 387 kts | 217° |
| 2026-04-11 13:13 | 19.29507 | -21.37557 | 37138 ft | 387 kts | 217° |
| 2026-04-11 13:14 | 19.24876 | -21.40457 | 37137 ft | 387 kts | 217° |
| 2026-04-11 13:14 | 19.20241 | -21.43358 | 37137 ft | 387 kts | 217° |
| 2026-04-11 13:15 | 19.15601 | -21.46261 | 37139 ft | 387 kts | 217° |
| 2026-04-11 13:15 | 19.10992 | -21.49142 | 37138 ft | 388 kts | 216° |
| 2026-04-11 13:16 | 19.06349 | -21.52042 | 37137 ft | 388 kts | 216° |
| 2026-04-11 13:16 | 19.01702 | -21.54943 | 37134 ft | 388 kts | 216° |
| 2026-04-11 13:17 | 18.97056 | -21.57841 | 37135 ft | 388 kts | 216° |
| 2026-04-11 13:17 | 18.92404 | -21.60742 | 37130 ft | 388 kts | 216° |
| 2026-04-11 13:18 | 18.87718 | -21.63662 | 37133 ft | 389 kts | 216° |
| 2026-04-11 13:18 | 18.83092 | -21.66542 | 37129 ft | 389 kts | 216° |
| 2026-04-11 13:19 | 18.78429 | -21.69444 | 37130 ft | 389 kts | 216° |
| 2026-04-11 13:19 | 18.73766 | -21.72343 | 37123 ft | 389 kts | 216° |
| 2026-04-11 13:20 | 18.69066 | -21.75264 | 37128 ft | 390 kts | 216° |
| 2026-04-11 13:20 | 18.64390 | -21.78168 | 37128 ft | 390 kts | 216° |
| 2026-04-11 13:21 | 18.59715 | -21.81070 | 37127 ft | 390 kts | 216° |
| 2026-04-11 13:21 | 18.55062 | -21.83955 | 37125 ft | 391 kts | 216° |
| 2026-04-11 13:22 | 18.50378 | -21.86859 | 37126 ft | 391 kts | 216° |
| 2026-04-11 13:22 | 18.45687 | -21.89764 | 37128 ft | 391 kts | 216° |
| 2026-04-11 13:23 | 18.40993 | -21.92671 | 37127 ft | 392 kts | 216° |
| 2026-04-11 13:23 | 18.36295 | -21.95577 | 37125 ft | 392 kts | 216° |
| 2026-04-11 13:24 | 18.31590 | -21.98486 | 37127 ft | 392 kts | 216° |
| 2026-04-11 13:24 | 18.26884 | -22.01393 | 37123 ft | 392 kts | 216° |
| 2026-04-11 13:25 | 18.22175 | -22.04301 | 37122 ft | 393 kts | 216° |
| 2026-04-11 13:25 | 18.17460 | -22.07211 | 37123 ft | 393 kts | 216° |
| 2026-04-11 13:26 | 18.12739 | -22.10123 | 37118 ft | 393 kts | 216° |
| 2026-04-11 13:26 | 18.08017 | -22.13033 | 37123 ft | 394 kts | 216° |
| 2026-04-11 13:27 | 18.03288 | -22.15946 | 37125 ft | 394 kts | 216° |
| 2026-04-11 13:27 | 17.98559 | -22.18858 | 37121 ft | 394 kts | 216° |
| 2026-04-11 13:28 | 17.93824 | -22.21771 | 37121 ft | 395 kts | 216° |
| 2026-04-11 13:28 | 17.89020 | -22.24582 | 37112 ft | 400 kts | 208° |
| 2026-04-11 13:29 | 17.83556 | -22.25966 | 37126 ft | 411 kts | 198° |
| 2026-04-11 13:29 | 17.77909 | -22.26980 | 37115 ft | 412 kts | 198° |
| 2026-04-11 13:30 | 17.72262 | -22.28002 | 37117 ft | 412 kts | 198° |
| 2026-04-11 13:30 | 17.66614 | -22.29060 | 37119 ft | 412 kts | 198° |
| 2026-04-11 13:31 | 17.60972 | -22.30132 | 37113 ft | 411 kts | 198° |
| 2026-04-11 13:31 | 17.58157 | -22.30668 | 36317 ft | 419 kts | 198° |
| 2026-04-11 13:31 | 17.55208 | -22.31242 | 35256 ft | 436 kts | 197° |
| 2026-04-11 13:31 | 17.52232 | -22.31812 | 34959 ft | 432 kts | 197° |
| 2026-04-11 13:32 | 17.49295 | -22.32366 | 34794 ft | 426 kts | 197° |
| 2026-04-11 13:32 | 17.46396 | -22.32912 | 34664 ft | 421 kts | 197° |
| 2026-04-11 13:32 | 17.43526 | -22.33454 | 34504 ft | 418 kts | 197° |
| 2026-04-11 13:32 | 17.40671 | -22.33996 | 34282 ft | 417 kts | 197° |
| 2026-04-11 13:33 | 17.37837 | -22.34507 | 33766 ft | 408 kts | 197° |
| 2026-04-11 13:33 | 17.35033 | -22.35032 | 32543 ft | 413 kts | 198° |
| 2026-04-11 13:33 | 17.32201 | -22.35581 | 31444 ft | 416 kts | 198° |
| 2026-04-11 13:33 | 17.29346 | -22.36138 | 30360 ft | 419 kts | 198° |
| 2026-04-11 13:34 | 17.26473 | -22.36695 | 29152 ft | 422 kts | 197° |
| 2026-04-11 13:34 | 17.23576 | -22.37253 | 27948 ft | 424 kts | 196° |
| 2026-04-11 13:34 | 17.20668 | -22.37809 | 26780 ft | 426 kts | 195° |
| 2026-04-11 13:34 | 17.17750 | -22.38365 | 25676 ft | 427 kts | 195° |
| 2026-04-11 13:35 | 17.14818 | -22.38921 | 24607 ft | 429 kts | 194° |
| 2026-04-11 13:35 | 17.11880 | -22.39478 | 23554 ft | 430 kts | 193° |
| 2026-04-11 13:35 | 17.08937 | -22.40035 | 22346 ft | 430 kts | 193° |
| 2026-04-11 13:35 | 17.05988 | -22.40592 | 21181 ft | 430 kts | 193° |
| 2026-04-11 13:36 | 17.03055 | -22.41147 | 20067 ft | 429 kts | 193° |
| 2026-04-11 13:36 | 17.00120 | -22.41702 | 18986 ft | 427 kts | 193° |
| 2026-04-11 13:36 | 16.97207 | -22.42253 | 17872 ft | 425 kts | 193° |
| 2026-04-11 13:36 | 16.94310 | -22.42801 | 16699 ft | 422 kts | 193° |
| 2026-04-11 13:37 | 16.91429 | -22.43346 | 15494 ft | 419 kts | 193° |
| 2026-04-11 13:37 | 16.88552 | -22.43892 | 14409 ft | 418 kts | 193° |
| 2026-04-11 13:37 | 16.85746 | -22.44421 | 13798 ft | 402 kts | 193° |
| 2026-04-11 13:37 | 16.83013 | -22.44936 | 12794 ft | 397 kts | 193° |
| 2026-04-11 13:38 | 16.80307 | -22.45448 | 11842 ft | 392 kts | 193° |
| 2026-04-11 13:38 | 16.77648 | -22.45950 | 11008 ft | 385 kts | 193° |
| 2026-04-11 13:38 | 16.75093 | -22.46433 | 10154 ft | 379 kts | 193° |
| 2026-04-11 13:38 | 16.72502 | -22.46925 | 9107 ft | 378 kts | 193° |
| 2026-04-11 13:39 | 16.69912 | -22.47415 | 8052 ft | 379 kts | 193° |
| 2026-04-11 13:39 | 16.67384 | -22.47893 | 7779 ft | 357 kts | 193° |
| 2026-04-11 13:39 | 16.65003 | -22.48337 | 7512 ft | 338 kts | 193° |
| 2026-04-11 13:39 | 16.62748 | -22.48761 | 7255 ft | 321 kts | 193° |
| 2026-04-11 13:40 | 16.60599 | -22.49166 | 6994 ft | 308 kts | 194° |
| 2026-04-11 13:40 | 16.58527 | -22.49557 | 6782 ft | 299 kts | 193° |
| 2026-04-11 13:40 | 16.56497 | -22.49941 | 6554 ft | 294 kts | 193° |
| 2026-04-11 13:40 | 16.54496 | -22.50322 | 6311 ft | 291 kts | 194° |
| 2026-04-11 13:41 | 16.52511 | -22.50698 | 6068 ft | 289 kts | 193° |
| 2026-04-11 13:41 | 16.50542 | -22.51071 | 5823 ft | 287 kts | 193° |
| 2026-04-11 13:41 | 16.48581 | -22.51442 | 5575 ft | 286 kts | 192° |
| 2026-04-11 13:41 | 16.46628 | -22.51810 | 5347 ft | 285 kts | 192° |
| 2026-04-11 13:42 | 16.44673 | -22.52179 | 5112 ft | 285 kts | 192° |
| 2026-04-11 13:42 | 16.42724 | -22.52546 | 4877 ft | 285 kts | 191° |
| 2026-04-11 13:42 | 16.40774 | -22.52913 | 4624 ft | 285 kts | 191° |
| 2026-04-11 13:42 | 16.38826 | -22.53281 | 4385 ft | 284 kts | 191° |
| 2026-04-11 13:43 | 16.36878 | -22.53648 | 4144 ft | 285 kts | 190° |
| 2026-04-11 13:43 | 16.34930 | -22.54014 | 3908 ft | 285 kts | 189° |
| 2026-04-11 13:43 | 16.32987 | -22.54380 | 3663 ft | 282 kts | 188° |
| 2026-04-11 13:43 | 16.31063 | -22.54742 | 3434 ft | 280 kts | 188° |
| 2026-04-11 13:44 | 16.29193 | -22.55092 | 3191 ft | 277 kts | 188° |
| 2026-04-11 13:44 | 16.27413 | -22.55773 | 2917 ft | 279 kts | 212° |
| 2026-04-11 13:44 | 16.25830 | -22.56977 | 2708 ft | 277 kts | 216° |
| 2026-04-11 13:44 | 16.24323 | -22.58179 | 2551 ft | 276 kts | 216° |
| 2026-04-11 13:45 | 16.22802 | -22.59398 | 2519 ft | 276 kts | 216° |
| 2026-04-11 13:45 | 16.21285 | -22.60610 | 2518 ft | 275 kts | 217° |
| 2026-04-11 13:45 | 16.19771 | -22.61817 | 2500 ft | 274 kts | 216° |
| 2026-04-11 13:45 | 16.18265 | -22.63013 | 2517 ft | 271 kts | 216° |
| 2026-04-11 13:46 | 16.16765 | -22.64203 | 2504 ft | 270 kts | 216° |
| 2026-04-11 13:46 | 16.15272 | -22.65385 | 2507 ft | 269 kts | 215° |
| 2026-04-11 13:46 | 16.13785 | -22.66560 | 2517 ft | 268 kts | 216° |
| 2026-04-11 13:46 | 16.12298 | -22.67735 | 2504 ft | 270 kts | 216° |
| 2026-04-11 13:47 | 16.10784 | -22.68929 | 2516 ft | 276 kts | 216° |
| 2026-04-11 13:47 | 16.09246 | -22.70142 | 2533 ft | 279 kts | 216° |
| 2026-04-11 13:47 | 16.07701 | -22.71362 | 2519 ft | 280 kts | 216° |
| 2026-04-11 13:47 | 16.06150 | -22.72585 | 2522 ft | 280 kts | 216° |
| 2026-04-11 13:48 | 16.04604 | -22.73804 | 2508 ft | 278 kts | 216° |
| 2026-04-11 13:48 | 16.03064 | -22.75018 | 2527 ft | 278 kts | 216° |
| 2026-04-11 13:48 | 16.01640 | -22.76369 | 2494 ft | 278 kts | 237° |
| 2026-04-11 13:48 | 16.01077 | -22.78198 | 2538 ft | 257 kts | 271° |
| 2026-04-11 13:49 | 16.01065 | -22.79983 | 2510 ft | 238 kts | 274° |
| 2026-04-11 13:49 | 16.01050 | -22.81626 | 2504 ft | 218 kts | 273° |
| 2026-04-11 13:49 | 16.01023 | -22.83134 | 2499 ft | 201 kts | 274° |
| 2026-04-11 13:49 | 16.00993 | -22.84534 | 2502 ft | 187 kts | 275° |
| 2026-04-11 13:50 | 16.00959 | -22.85839 | 2492 ft | 175 kts | 273° |
| 2026-04-11 13:50 | 16.00927 | -22.87180 | 2583 ft | 204 kts | 272° |
| 2026-04-11 13:50 | 16.00889 | -22.88728 | 2562 ft | 216 kts | 273° |
| 2026-04-11 13:50 | 16.00890 | -22.89750 | 2527 ft | 209 kts | 281° |
| 2026-04-11 13:51 | 16.01440 | -22.91038 | 2529 ft | 184 kts | 321° |
| 2026-04-11 13:51 | 16.02407 | -22.91703 | 2487 ft | 155 kts | 348° |
| 2026-04-11 13:51 | 16.03395 | -22.91899 | 2419 ft | 134 kts | 4° |
| 2026-04-11 13:51 | 16.04295 | -22.91746 | 2098 ft | 132 kts | 17° |
| 2026-04-11 13:52 | 16.05178 | -22.91486 | 1779 ft | 132 kts | 18° |
| 2026-04-11 13:52 | 16.06301 | -22.91150 | 1547 ft | 118 kts | 19° |
| 2026-04-11 13:52 | 16.06822 | -22.90991 | 1463 ft | 116 kts | 19° |
| 2026-04-11 13:52 | 16.07604 | -22.90751 | 1228 ft | 113 kts | 18° |
| 2026-04-11 13:53 | 16.08363 | -22.90518 | 1039 ft | 120 kts | 21° |
| 2026-04-11 13:53 | 16.09234 | -22.90247 | 956 ft | 138 kts | 20° |
| 2026-04-11 13:53 | 16.10170 | -22.89968 | 800 ft | 139 kts | 18° |
| 2026-04-11 13:53 | 16.11091 | -22.89667 | 581 ft | 140 kts | 20° |
| 2026-04-11 13:54 | 16.12033 | -22.89404 | 306 ft | 139 kts | 20° |
| 2026-04-11 13:54 | 16.12934 | -22.89113 | 75 ft | 132 kts | 21° |
| 2026-04-11 13:54 | 16.13579 | -22.88935 | 57 ft | 33 kts | 343° |
| 2026-04-11 13:54 | 16.13604 | -22.89018 | 59 ft | 11 kts | 227° |
| 2026-04-11 13:55 | 16.13544 | -22.89035 | 60 ft | 12 kts | 189° |
| 2026-04-11 13:55 | 16.13513 | -22.89105 | 57 ft | 13 kts | 281° |
| 2026-04-11 13:55 | 16.13519 | -22.89124 | 51 ft | 0 kts | 290° |